createdAt,value
2018-08-16T00:03:56.166Z,97202.00
2018-08-16T00:08:50.767Z,97199.33
2018-08-16T00:13:45.319Z,97199.05
2018-08-16T00:18:39.901Z,97190.50
2018-08-16T00:23:34.511Z,97185.69
2018-08-16T00:28:29.081Z,97185.95
2018-08-16T00:33:23.617Z,97177.20
2018-08-16T00:38:18.167Z,97172.66
2018-08-16T00:43:12.743Z,97179.50
2018-08-16T00:48:07.307Z,97172.29
2018-08-16T00:53:01.864Z,97176.25
2018-08-16T00:57:56.445Z,97170.16
2018-08-16T01:02:51.018Z,97169.30
2018-08-16T01:07:45.589Z,97167.95
2018-08-16T01:12:40.445Z,97162.34
2018-08-16T01:17:34.990Z,97165.77
2018-08-16T01:22:29.533Z,97158.58
2018-08-16T01:27:24.115Z,97159.84
2018-08-16T01:32:18.697Z,97156.88
2018-08-16T01:37:13.296Z,97157.64
2018-08-16T01:42:07.920Z,97154.69
2018-08-16T01:47:02.421Z,97151.75
2018-08-16T01:51:57.406Z,97149.61
2018-08-16T01:56:52.538Z,97148.32
2018-08-16T02:01:47.237Z,97155.65
2018-08-16T02:06:41.751Z,97147.12
2018-08-16T02:11:36.280Z,97152.13
2018-08-16T02:16:30.954Z,97147.08
2018-08-16T02:21:25.520Z,97147.29
2018-08-16T02:26:20.088Z,97149.91
2018-08-16T02:31:14.624Z,97141.13
2018-08-16T02:36:09.134Z,97147.94
2018-08-16T02:41:03.701Z,97142.34
2018-08-16T02:45:58.254Z,97140.98
2018-08-16T02:50:52.813Z,97138.31
2018-08-16T02:55:47.338Z,97139.98
2018-08-16T03:00:41.885Z,97139.95
2018-08-16T03:05:36.538Z,97138.48
2018-08-16T03:10:31.094Z,97133.66
2018-08-16T03:15:25.585Z,97127.24
2018-08-16T03:20:20.066Z,97135.11
2018-08-16T03:25:14.629Z,97131.90
2018-08-16T03:30:09.209Z,97127.09
2018-08-16T03:35:03.876Z,97128.88
2018-08-16T03:39:58.490Z,97130.73
2018-08-16T03:44:53.037Z,97133.61
2018-08-16T03:49:47.599Z,97130.13
2018-08-16T03:54:42.154Z,97127.25
2018-08-16T03:59:36.724Z,97137.25
2018-08-16T04:04:31.301Z,97134.81
2018-08-16T04:09:25.836Z,97130.08
2018-08-16T04:14:20.353Z,97138.78
2018-08-16T04:19:14.938Z,97139.54
2018-08-16T04:24:09.528Z,97141.91
2018-08-16T04:29:04.123Z,97143.08
2018-08-16T04:33:59.037Z,97142.34
2018-08-16T04:38:53.653Z,97142.67
2018-08-16T04:43:48.366Z,97138.19
2018-08-16T04:48:42.861Z,97134.54
2018-08-16T04:53:37.475Z,97133.34
2018-08-16T04:58:32.406Z,97132.06
2018-08-16T05:03:27.085Z,97126.30
2018-08-16T05:08:21.877Z,97115.70
2018-08-16T05:13:16.785Z,97117.67
2018-08-16T05:18:11.529Z,97113.55
2018-08-16T05:23:06.278Z,97118.39
2018-08-16T05:28:00.848Z,97118.41
2018-08-16T05:32:55.392Z,97117.02
2018-08-16T05:37:49.884Z,97120.65
2018-08-16T05:42:44.433Z,97104.97
2018-08-16T05:47:39.021Z,97108.91
2018-08-16T05:52:33.909Z,97107.97
2018-08-16T05:57:28.568Z,97108.80
2018-08-16T06:02:23.168Z,97106.17
2018-08-16T06:07:17.700Z,97104.70
2018-08-16T06:12:12.320Z,97104.87
2018-08-16T06:17:06.905Z,97108.06
2018-08-16T06:22:01.874Z,97110.83
2018-08-16T06:26:56.313Z,97107.66
2018-08-16T06:31:50.949Z,97108.06
2018-08-16T06:36:45.581Z,97104.33
2018-08-16T06:41:40.585Z,97108.55
2018-08-16T06:46:35.169Z,97105.98
2018-08-16T06:51:29.981Z,97110.85
2018-08-16T06:56:25.216Z,97095.94
2018-08-16T07:01:20.047Z,97094.59
2018-08-16T07:06:17.097Z,97096.02
2018-08-16T07:11:12.041Z,97090.53
2018-08-16T07:16:14.210Z,97088.40
2018-08-16T07:21:08.777Z,97093.45
2018-08-16T07:26:03.459Z,97089.48
2018-08-16T07:30:58.881Z,97091.91
2018-08-16T07:35:53.370Z,97086.98
2018-08-16T07:40:48.008Z,97093.94
2018-08-16T07:45:42.710Z,97096.27
2018-08-16T07:50:37.403Z,97091.31
2018-08-16T07:55:31.863Z,97095.84
2018-08-16T08:00:26.387Z,97095.03
2018-08-16T08:05:21.588Z,97090.70
2018-08-16T08:10:16.103Z,97092.10
2018-08-16T08:15:14.002Z,97085.52
2018-08-16T08:20:14.680Z,97079.74
2018-08-16T08:25:09.524Z,97072.81
2018-08-16T08:30:05.306Z,97071.27
2018-08-16T08:34:59.948Z,97060.05
2018-08-16T08:39:54.404Z,97055.50
2018-08-16T08:44:48.961Z,97059.03
2018-08-16T08:49:44.351Z,97050.20
2018-08-16T08:54:56.825Z,97046.34
2018-08-16T08:59:51.602Z,97042.36
2018-08-16T09:04:47.477Z,97036.05
2018-08-16T09:11:15.600Z,97032.61
2018-08-16T09:16:22.892Z,97028.00
2018-08-16T09:21:17.520Z,97021.06
2018-08-16T09:26:17.672Z,97019.80
2018-08-16T09:31:29.877Z,97018.59
2018-08-16T09:36:26.894Z,97001.48
2018-08-16T09:41:34.604Z,96998.41
2018-08-16T09:47:05.811Z,96992.38
2018-08-16T09:52:02.072Z,96985.30
2018-08-16T09:57:02.195Z,96987.56
2018-08-16T10:02:03.648Z,96974.31
2018-08-16T10:07:01.918Z,96973.25
2018-08-16T10:12:01.303Z,96974.19
2018-08-16T10:16:59.537Z,96968.27
2018-08-16T10:22:00.594Z,96963.02
2018-08-16T10:26:59.190Z,96956.10
2018-08-16T10:31:56.088Z,96950.84
2018-08-16T10:36:52.374Z,96954.80
2018-08-16T10:41:47.165Z,96935.02
2018-08-16T10:46:41.624Z,96917.19
2018-08-16T10:51:36.493Z,96932.13
2018-08-16T10:56:31.080Z,96924.28
2018-08-16T11:01:31.695Z,96917.41
2018-08-16T11:06:26.385Z,96909.97
2018-08-16T11:11:21.104Z,96907.52
2018-08-16T11:16:15.547Z,96900.27
2018-08-16T11:21:10.108Z,96903.46
2018-08-16T11:26:04.990Z,96904.53
2018-08-16T11:30:59.484Z,96899.63
2018-08-16T11:35:54.212Z,96894.75
2018-08-16T11:40:49.364Z,96891.34
2018-08-16T11:45:44.033Z,96881.54
2018-08-16T11:50:38.583Z,96881.66
2018-08-16T11:55:33.049Z,96867.70
2018-08-16T12:00:27.550Z,96864.67
2018-08-16T12:05:22.049Z,96865.56
2018-08-16T12:10:16.526Z,96855.65
2018-08-16T12:15:11.011Z,96857.41
2018-08-16T12:20:07.952Z,96852.02
2018-08-16T12:25:02.905Z,96849.19
2018-08-16T12:29:57.770Z,96848.40
2018-08-16T12:34:52.242Z,96842.11
2018-08-16T12:39:46.678Z,96841.64
2018-08-16T12:44:44.089Z,96845.03
2018-08-16T12:49:38.835Z,96835.12
2018-08-16T12:54:33.294Z,96829.56
2018-08-16T12:59:27.860Z,96830.11
2018-08-16T13:04:22.407Z,96818.42
2018-08-16T13:09:17.010Z,96805.19
2018-08-16T13:14:11.781Z,96806.54
2018-08-16T13:19:06.571Z,96793.29
2018-08-16T13:24:01.682Z,96788.58
2018-08-16T13:28:56.291Z,96780.71
2018-08-16T13:33:51.104Z,96776.86
2018-08-16T13:38:45.606Z,96761.33
2018-08-16T13:43:40.405Z,96762.88
2018-08-16T13:48:35.060Z,96755.56
2018-08-16T13:53:29.933Z,96752.98
2018-08-16T13:58:24.851Z,96752.95
2018-08-16T14:03:19.493Z,96755.63
2018-08-16T14:08:14.199Z,96745.60
2018-08-16T14:13:08.991Z,96734.56
2018-08-16T14:18:04.621Z,96724.39
2018-08-16T14:22:59.371Z,96721.23
2018-08-16T14:27:53.894Z,96720.28
2018-08-16T14:32:48.433Z,96717.86
2018-08-16T14:37:43.098Z,96717.19
2018-08-16T14:42:37.853Z,96722.41
2018-08-16T14:47:32.742Z,96724.06
2018-08-16T14:52:27.276Z,96708.57
2018-08-16T14:57:21.808Z,96704.41
2018-08-16T15:02:16.374Z,96701.02
2018-08-16T15:07:11.163Z,96704.64
2018-08-16T15:12:05.785Z,96699.02
2018-08-16T15:17:00.646Z,96696.00
2018-08-16T15:21:55.280Z,96696.68
2018-08-16T15:26:50.443Z,96697.25
2018-08-16T15:31:44.977Z,96694.75
2018-08-16T15:36:39.768Z,96694.20
2018-08-16T15:41:34.286Z,96694.80
2018-08-16T15:46:28.889Z,96688.38
2018-08-16T15:51:23.632Z,96693.97
2018-08-16T15:56:18.212Z,96689.50
2018-08-16T16:01:12.758Z,96684.05
2018-08-16T16:06:07.577Z,96684.91
2018-08-16T16:11:02.054Z,96683.56
2018-08-16T16:15:56.617Z,96676.09
2018-08-16T16:20:51.649Z,96674.08
2018-08-16T16:25:46.285Z,96670.76
2018-08-16T16:30:40.858Z,96671.11
2018-08-16T16:35:35.343Z,96666.58
2018-08-16T16:40:29.919Z,96661.27
2018-08-16T16:45:24.569Z,96658.16
2018-08-16T16:50:19.129Z,96657.67
2018-08-16T16:55:13.762Z,96652.05
2018-08-16T17:00:09.633Z,96655.35
2018-08-16T17:05:04.250Z,96654.20
2018-08-16T17:09:58.943Z,96643.77
2018-08-16T17:14:53.541Z,96645.36
2018-08-16T17:19:48.141Z,96638.30
2018-08-16T17:24:42.706Z,96642.51
2018-08-16T17:29:37.253Z,96644.20
2018-08-16T17:34:31.799Z,96639.82
2018-08-16T17:39:26.367Z,96639.73
2018-08-16T17:44:20.888Z,96638.72
2018-08-16T17:49:15.458Z,96646.13
2018-08-16T17:54:10.014Z,96641.73
2018-08-16T17:59:04.585Z,96639.69
2018-08-16T18:03:59.175Z,96642.94
2018-08-16T18:08:53.693Z,96638.60
2018-08-16T18:13:48.176Z,96638.11
2018-08-16T18:18:42.725Z,96646.01
2018-08-16T18:23:37.265Z,96657.83
2018-08-16T18:28:31.789Z,96655.98
2018-08-16T18:33:26.325Z,96658.67
2018-08-16T18:38:20.776Z,96663.92
2018-08-16T18:43:15.285Z,96666.54
2018-08-16T18:48:09.965Z,96668.86
2018-08-16T18:53:04.530Z,96669.64
2018-08-16T18:57:59.142Z,96678.72
2018-08-16T19:02:53.649Z,96684.25
2018-08-16T19:07:48.277Z,96688.56
2018-08-16T19:12:42.816Z,96682.12
2018-08-16T19:17:37.348Z,96678.19
2018-08-16T19:22:32.505Z,96683.80
2018-08-16T19:27:27.013Z,96689.02
2018-08-16T19:32:21.541Z,96692.58
2018-08-16T19:37:16.178Z,96692.05
2018-08-16T19:42:10.705Z,96696.33
2018-08-16T19:47:05.242Z,96689.47
2018-08-16T19:51:59.889Z,96699.44
2018-08-16T19:56:54.447Z,96699.26
2018-08-16T20:01:49.053Z,96703.21
2018-08-16T20:06:43.584Z,96703.64
2018-08-16T20:11:38.193Z,96704.02
2018-08-16T20:16:32.705Z,96697.38
2018-08-16T20:21:27.280Z,96700.57
2018-08-16T20:26:21.830Z,96696.81
2018-08-16T20:31:16.365Z,96690.03
2018-08-16T20:36:10.900Z,96693.70
2018-08-16T20:41:05.404Z,96696.73
2018-08-16T20:46:00.105Z,96710.30
2018-08-16T20:50:54.641Z,96706.14
2018-08-16T20:55:49.329Z,96712.47
2018-08-16T21:00:43.967Z,96709.78
2018-08-16T21:05:38.500Z,96716.86
2018-08-16T21:10:33.022Z,96727.98
2018-08-16T21:15:27.532Z,96722.86
2018-08-16T21:20:22.076Z,96722.56
2018-08-16T21:25:16.581Z,96719.56
2018-08-16T21:30:11.094Z,96721.53
2018-08-16T21:35:05.664Z,96734.70
2018-08-16T21:40:00.189Z,96732.34
2018-08-16T21:44:54.673Z,96735.45
2018-08-16T21:49:49.219Z,96736.05
2018-08-16T21:54:43.710Z,96736.42
2018-08-16T21:59:38.200Z,96740.02
2018-08-16T22:04:32.717Z,96727.55
2018-08-16T22:09:27.238Z,96732.39
2018-08-16T22:14:21.740Z,96730.09
2018-08-16T22:19:16.286Z,96736.82
2018-08-16T22:24:10.776Z,96740.59
2018-08-16T22:29:05.353Z,96740.40
2018-08-16T22:33:59.946Z,96736.98
2018-08-16T22:38:54.418Z,96742.12
2018-08-16T22:43:48.944Z,96734.19
2018-08-16T22:48:43.428Z,96734.80
2018-08-16T22:53:37.915Z,96735.62
2018-08-16T22:58:32.436Z,96735.70
2018-08-16T23:03:26.910Z,96741.12
2018-08-16T23:08:21.414Z,96732.11
2018-08-16T23:13:15.913Z,96737.02
2018-08-16T23:18:10.437Z,96736.03
2018-08-16T23:23:05.032Z,96743.57
2018-08-16T23:27:59.549Z,96740.45
2018-08-16T23:32:54.053Z,96731.72
2018-08-16T23:37:48.556Z,96730.45
2018-08-16T23:42:43.269Z,96725.68
2018-08-16T23:47:37.788Z,96729.11
2018-08-16T23:52:32.293Z,96731.50
2018-08-16T23:57:26.810Z,96728.36
